sensor_id;sensor_type;location;lat;lon;timestamp;pressure;altitude;pressure_sealevel;temperature;humidity
22241;BME280;11289;52.524;13.694;2023-03-01T00:26:17;102483.56;;;-1.84;68.83
22241;BME280;11289;52.524;13.694;2023-03-01T00:29:33;102463.94;;;-2.08;68.62
22241;BME280;11289;52.524;13.694;2023-03-01T00:55:36;102472.09;;;-2.15;69.70
22241;BME280;11289;52.524;13.694;2023-03-01T01:01:22;102459.44;;;-2.22;69.66
22241;BME280;11289;52.524;13.694;2023-03-01T01:04:39;102440.56;;;-2.31;70.13
22241;BME280;11289;52.524;13.694;2023-03-01T01:10:20;102444.31;;;-2.32;70.08
22241;BME280;11289;52.524;13.694;2023-03-01T01:12:55;102467.03;;;-2.18;69.69
22241;BME280;11289;52.524;13.694;2023-03-01T01:19:21;102468.28;;;-2.20;70.34
22241;BME280;11289;52.524;13.694;2023-03-01T01:29:28;102424.81;;;-2.42;70.53
22241;BME280;11289;52.524;13.694;2023-03-01T01:31:54;102425.00;;;-2.43;70.44
22241;BME280;11289;52.524;13.694;2023-03-01T01:34:21;102439.28;;;-2.35;70.66
22241;BME280;11289;52.524;13.694;2023-03-01T01:36:53;102408.63;;;-2.50;70.75
22241;BME280;11289;52.524;13.694;2023-03-01T01:39:20;102377.13;;;-2.66;70.70
22241;BME280;11289;52.524;13.694;2023-03-01T01:41:46;102415.28;;;-2.53;70.79
22241;BME280;11289;52.524;13.694;2023-03-01T01:44:18;102392.22;;;-2.64;70.56
22241;BME280;11289;52.524;13.694;2023-03-01T01:46:57;102406.50;;;-2.55;70.76
22241;BME280;11289;52.524;13.694;2023-03-01T01:49:44;102432.56;;;-2.39;71.20
22241;BME280;11289;52.524;13.694;2023-03-01T01:52:22;102443.44;;;-2.39;70.59
22241;BME280;11289;52.524;13.694;2023-03-01T01:55:03;102413.34;;;-2.66;70.44
22241;BME280;11289;52.524;13.694;2023-03-01T01:58:00;102410.63;;;-2.66;70.14
22241;BME280;11289;52.524;13.694;2023-03-01T02:00:29;102410.13;;;-2.76;70.01
22241;BME280;11289;52.524;13.694;2023-03-01T02:03:29;102430.69;;;-2.67;70.19
22241;BME280;11289;52.524;13.694;2023-03-01T02:05:57;102455.41;;;-2.62;69.81
22241;BME280;11289;52.524;13.694;2023-03-01T02:08:28;102434.97;;;-2.79;70.04
22241;BME280;11289;52.524;13.694;2023-03-01T02:10:55;102419.03;;;-2.89;69.81
22241;BME280;11289;52.524;13.694;2023-03-01T02:13:24;102434.34;;;-2.81;69.96
22241;BME280;11289;52.524;13.694;2023-03-01T02:15:57;102407.00;;;-3.01;70.02
22241;BME280;11289;52.524;13.694;2023-03-01T02:18:26;102419.38;;;-2.99;70.15
22241;BME280;11289;52.524;13.694;2023-03-01T02:21:05;102449.88;;;-2.75;69.98
22241;BME280;11289;52.524;13.694;2023-03-01T02:23:36;102405.91;;;-3.07;69.60
22241;BME280;11289;52.524;13.694;2023-03-01T02:26:23;102403.97;;;-3.13;69.54
22241;BME280;11289;52.524;13.694;2023-03-01T02:28:56;102400.63;;;-3.15;69.99
22241;BME280;11289;52.524;13.694;2023-03-01T02:31:22;102410.03;;;-3.11;70.06
22241;BME280;11289;52.524;13.694;2023-03-01T02:34:07;102435.22;;;-3.02;70.36
22241;BME280;11289;52.524;13.694;2023-03-01T02:36:40;102434.84;;;-2.99;70.55
22241;BME280;11289;52.524;13.694;2023-03-01T02:39:08;102427.53;;;-2.99;70.90
22241;BME280;11289;52.524;13.694;2023-03-01T02:41:41;102438.81;;;-2.95;71.08
22241;BME280;11289;52.524;13.694;2023-03-01T02:44:07;102410.84;;;-3.17;70.83
22241;BME280;11289;52.524;13.694;2023-03-01T02:46:34;102411.94;;;-3.11;70.78
22241;BME280;11289;52.524;13.694;2023-03-01T02:49:36;102447.66;;;-2.93;70.94
22241;BME280;11289;52.524;13.694;2023-03-01T02:55:06;102440.09;;;-2.98;70.29
22241;BME280;11289;52.524;13.694;2023-03-01T02:57:38;102403.00;;;-3.27;70.13
22241;BME280;11289;52.524;13.694;2023-03-01T03:00:07;102387.28;;;-3.32;70.35
22241;BME280;11289;52.524;13.694;2023-03-01T03:02:35;102380.75;;;-3.37;70.06
22241;BME280;11289;52.524;13.694;2023-03-01T03:05:13;102409.28;;;-3.26;70.35
22241;BME280;11289;52.524;13.694;2023-03-01T03:07:42;102393.75;;;-3.33;69.89
22241;BME280;11289;52.524;13.694;2023-03-01T03:10:11;102422.72;;;-3.18;69.97
22241;BME280;11289;52.524;13.694;2023-03-01T03:12:38;102421.25;;;-3.21;70.44
22241;BME280;11289;52.524;13.694;2023-03-01T03:18:30;102378.09;;;-3.52;70.52
22241;BME280;11289;52.524;13.694;2023-03-01T03:21:12;102418.47;;;-3.27;70.98
22241;BME280;11289;52.524;13.694;2023-03-01T03:23:58;102409.69;;;-3.29;70.91
22241;BME280;11289;52.524;13.694;2023-03-01T03:27:04;102392.41;;;-3.43;70.45
22241;BME280;11289;52.524;13.694;2023-03-01T03:36:24;102351.13;;;-3.75;70.65
22241;BME280;11289;52.524;13.694;2023-03-01T03:39:02;102386.56;;;-3.62;70.31
22241;BME280;11289;52.524;13.694;2023-03-01T03:41:27;102396.47;;;-3.54;70.58
22241;BME280;11289;52.524;13.694;2023-03-01T03:43:59;102364.13;;;-3.71;70.45
22241;BME280;11289;52.524;13.694;2023-03-01T03:46:28;102363.22;;;-3.78;70.52
22241;BME280;11289;52.524;13.694;2023-03-01T03:49:07;102351.72;;;-3.80;70.37
22241;BME280;11289;52.524;13.694;2023-03-01T03:51:57;102335.53;;;-3.88;70.23
22241;BME280;11289;52.524;13.694;2023-03-01T03:54:26;102361.16;;;-3.76;70.15
22241;BME280;11289;52.524;13.694;2023-03-01T03:56:53;102358.06;;;-3.73;69.74
22241;BME280;11289;52.524;13.694;2023-03-01T03:59:18;102355.66;;;-3.82;70.32
22241;BME280;11289;52.524;13.694;2023-03-01T04:01:51;102364.50;;;-3.74;71.04
22241;BME280;11289;52.524;13.694;2023-03-01T04:04:17;102349.38;;;-3.83;71.25
22241;BME280;11289;52.524;13.694;2023-03-01T04:06:49;102366.19;;;-3.73;71.60
22241;BME280;11289;52.524;13.694;2023-03-01T04:09:19;102362.19;;;-3.77;71.07
22241;BME280;11289;52.524;13.694;2023-03-01T04:11:44;102354.81;;;-3.83;70.99
22241;BME280;11289;52.524;13.694;2023-03-01T04:14:10;102374.94;;;-3.77;70.88
22241;BME280;11289;52.524;13.694;2023-03-01T04:16:41;102363.78;;;-3.82;70.80
22241;BME280;11289;52.524;13.694;2023-03-01T04:19:07;102353.50;;;-3.87;70.91
22241;BME280;11289;52.524;13.694;2023-03-01T04:21:34;102357.25;;;-3.88;70.46
22241;BME280;11289;52.524;13.694;2023-03-01T04:24:03;102362.28;;;-3.85;70.75
22241;BME280;11289;52.524;13.694;2023-03-01T04:26:32;102329.03;;;-4.09;70.74
22241;BME280;11289;52.524;13.694;2023-03-01T04:29:01;102354.19;;;-4.00;70.69
22241;BME280;11289;52.524;13.694;2023-03-01T04:31:27;102351.28;;;-3.98;70.53
22241;BME280;11289;52.524;13.694;2023-03-01T04:33:55;102351.78;;;-3.95;70.82
22241;BME280;11289;52.524;13.694;2023-03-01T04:36:23;102349.25;;;-3.96;70.36
22241;BME280;11289;52.524;13.694;2023-03-01T04:38:49;102346.88;;;-3.99;70.95
22241;BME280;11289;52.524;13.694;2023-03-01T04:41:17;102372.13;;;-3.84;71.83
22241;BME280;11289;52.524;13.694;2023-03-01T04:43:42;102362.44;;;-3.93;71.24
22241;BME280;11289;52.524;13.694;2023-03-01T04:46:10;102368.88;;;-3.94;71.37
22241;BME280;11289;52.524;13.694;2023-03-01T04:48:38;102377.31;;;-3.89;71.56
22241;BME280;11289;52.524;13.694;2023-03-01T04:51:04;102366.81;;;-3.92;72.00
22241;BME280;11289;52.524;13.694;2023-03-01T04:53:30;102370.19;;;-3.90;72.38
22241;BME280;11289;52.524;13.694;2023-03-01T04:55:56;102366.81;;;-3.92;72.09
22241;BME280;11289;52.524;13.694;2023-03-01T04:58:30;102372.19;;;-3.99;71.74
22241;BME280;11289;52.524;13.694;2023-03-01T05:00:56;102368.78;;;-4.01;72.70
22241;BME280;11289;52.524;13.694;2023-03-01T05:03:22;102362.53;;;-4.02;72.50
22241;BME280;11289;52.524;13.694;2023-03-01T05:05:49;102379.09;;;-3.96;72.54
22241;BME280;11289;52.524;13.694;2023-03-01T05:08:15;102373.84;;;-3.98;72.80
22241;BME280;11289;52.524;13.694;2023-03-01T05:10:46;102368.41;;;-3.98;72.25
22241;BME280;11289;52.524;13.694;2023-03-01T05:13:13;102378.00;;;-4.02;72.03
22241;BME280;11289;52.524;13.694;2023-03-01T05:15:40;102378.81;;;-4.02;71.75
22241;BME280;11289;52.524;13.694;2023-03-01T05:18:05;102373.78;;;-4.05;71.47
22241;BME280;11289;52.524;13.694;2023-03-01T05:20:37;102372.09;;;-4.06;71.59
22241;BME280;11289;52.524;13.694;2023-03-01T05:23:02;102368.72;;;-4.08;71.70
22241;BME280;11289;52.524;13.694;2023-03-01T05:25:30;102364.53;;;-4.10;71.75
22241;BME280;11289;52.524;13.694;2023-03-01T05:27:58;102360.69;;;-4.16;71.82
22241;BME280;11289;52.524;13.694;2023-03-01T05:30:23;102340.63;;;-4.37;71.43
22241;BME280;11289;52.524;13.694;2023-03-01T05:32:50;102362.47;;;-4.23;71.43
22241;BME280;11289;52.524;13.694;2023-03-01T05:35:21;102367.72;;;-4.22;71.91
22241;BME280;11289;52.524;13.694;2023-03-01T05:37:48;102364.16;;;-4.22;71.80
22241;BME280;11289;52.524;13.694;2023-03-01T05:40:19;102362.84;;;-4.26;71.80
22241;BME280;11289;52.524;13.694;2023-03-01T05:42:48;102358.25;;;-4.26;71.34
22241;BME280;11289;52.524;13.694;2023-03-01T05:45:15;102343.78;;;-4.33;71.51
22241;BME280;11289;52.524;13.694;2023-03-01T05:47:42;102346.28;;;-4.31;71.73
22241;BME280;11289;52.524;13.694;2023-03-01T05:50:19;102349.69;;;-4.29;71.65
22241;BME280;11289;52.524;13.694;2023-03-01T05:52:50;102361.34;;;-4.29;72.49
22241;BME280;11289;52.524;13.694;2023-03-01T05:55:18;102359.50;;;-4.28;72.41
22241;BME280;11289;52.524;13.694;2023-03-01T05:57:44;102371.38;;;-4.29;72.61
22241;BME280;11289;52.524;13.694;2023-03-01T06:00:10;102371.38;;;-4.29;71.87
22241;BME280;11289;52.524;13.694;2023-03-01T06:02:37;102375.13;;;-4.30;71.86
22241;BME280;11289;52.524;13.694;2023-03-01T06:05:04;102358.56;;;-4.35;71.62
22241;BME280;11289;52.524;13.694;2023-03-01T06:07:30;102359.41;;;-4.35;72.38
22241;BME280;11289;52.524;13.694;2023-03-01T06:09:55;102362.31;;;-4.37;72.27
22241;BME280;11289;52.524;13.694;2023-03-01T06:12:20;102368.38;;;-4.34;72.36
22241;BME280;11289;52.524;13.694;2023-03-01T06:14:46;102350.63;;;-4.37;72.49
22241;BME280;11289;52.524;13.694;2023-03-01T06:17:12;102365.47;;;-4.33;72.61
22241;BME280;11289;52.524;13.694;2023-03-01T06:19:38;102346.13;;;-4.45;72.44
22241;BME280;11289;52.524;13.694;2023-03-01T06:22:03;102338.56;;;-4.49;72.64
22241;BME280;11289;52.524;13.694;2023-03-01T06:24:28;102360.91;;;-4.32;72.73
22241;BME280;11289;52.524;13.694;2023-03-01T06:26:54;102364.84;;;-4.35;72.80
22241;BME280;11289;52.524;13.694;2023-03-01T06:29:20;102365.28;;;-4.31;72.73
22241;BME280;11289;52.524;13.694;2023-03-01T06:31:47;102362.22;;;-4.28;72.92
22241;BME280;11289;52.524;13.694;2023-03-01T06:34:12;102370.63;;;-4.23;73.02
22241;BME280;11289;52.524;13.694;2023-03-01T06:36:39;102382.97;;;-4.21;73.19
22241;BME280;11289;52.524;13.694;2023-03-01T06:39:04;102369.59;;;-4.22;73.20
22241;BME280;11289;52.524;13.694;2023-03-01T06:41:31;102383.91;;;-4.13;73.95
22241;BME280;11289;52.524;13.694;2023-03-01T06:43:56;102376.13;;;-4.16;73.93
22241;BME280;11289;52.524;13.694;2023-03-01T06:46:21;102384.44;;;-4.03;74.59
22241;BME280;11289;52.524;13.694;2023-03-01T06:48:47;102378.81;;;-4.02;74.58
22241;BME280;11289;52.524;13.694;2023-03-01T06:51:12;102380.97;;;-3.97;74.74
22241;BME280;11289;52.524;13.694;2023-03-01T06:53:38;102379.53;;;-3.93;74.73
22241;BME280;11289;52.524;13.694;2023-03-01T06:56:03;102390.50;;;-3.86;74.78
22241;BME280;11289;52.524;13.694;2023-03-01T06:58:29;102387.41;;;-3.83;74.70
22241;BME280;11289;52.524;13.694;2023-03-01T07:00:54;102378.19;;;-3.82;74.97
22241;BME280;11289;52.524;13.694;2023-03-01T07:03:19;102381.19;;;-3.77;75.18
22241;BME280;11289;52.524;13.694;2023-03-01T07:05:45;102391.09;;;-3.69;75.13
22241;BME280;11289;52.524;13.694;2023-03-01T07:08:10;102368.63;;;-3.78;75.82
22241;BME280;11289;52.524;13.694;2023-03-01T07:10:36;102379.19;;;-3.68;75.53
22241;BME280;11289;52.524;13.694;2023-03-01T07:13:01;102396.69;;;-3.56;75.94
22241;BME280;11289;52.524;13.694;2023-03-01T07:15:27;102402.34;;;-3.51;75.76
22241;BME280;11289;52.524;13.694;2023-03-01T07:17:53;102396.34;;;-3.46;75.72
22241;BME280;11289;52.524;13.694;2023-03-01T07:20:19;102380.63;;;-3.51;76.20
22241;BME280;11289;52.524;13.694;2023-03-01T07:22:49;102392.31;;;-3.28;76.59
22241;BME280;11289;52.524;13.694;2023-03-01T07:25:15;102395.22;;;-3.08;77.42
22241;BME280;11289;52.524;13.694;2023-03-01T07:27:40;102390.38;;;-2.85;78.31
22241;BME280;11289;52.524;13.694;2023-03-01T07:30:06;102381.97;;;-2.62;78.72
22241;BME280;11289;52.524;13.694;2023-03-01T07:32:31;102388.88;;;-2.31;78.74
22241;BME280;11289;52.524;13.694;2023-03-01T07:34:57;102390.66;;;-2.03;79.07
22241;BME280;11289;52.524;13.694;2023-03-01T07:37:22;102380.72;;;-1.76;78.60
22241;BME280;11289;52.524;13.694;2023-03-01T07:39:47;102370.06;;;-1.50;77.38
22241;BME280;11289;52.524;13.694;2023-03-01T07:42:13;102387.28;;;-1.16;76.98
22241;BME280;11289;52.524;13.694;2023-03-01T07:44:38;102377.88;;;-0.94;76.28
22241;BME280;11289;52.524;13.694;2023-03-01T07:47:04;102379.69;;;-0.54;76.62
22241;BME280;11289;52.524;13.694;2023-03-01T07:49:29;102358.25;;;-0.44;75.56
22241;BME280;11289;52.524;13.694;2023-03-01T07:51:54;102380.38;;;0.00;76.08
22241;BME280;11289;52.524;13.694;2023-03-01T07:54:20;102384.22;;;0.31;73.67
22241;BME280;11289;52.524;13.694;2023-03-01T07:56:45;102390.63;;;0.50;73.31
22241;BME280;11289;52.524;13.694;2023-03-01T07:59:11;102391.91;;;0.79;72.58
22241;BME280;11289;52.524;13.694;2023-03-01T08:01:36;102392.97;;;1.03;72.14
22241;BME280;11289;52.524;13.694;2023-03-01T08:04:01;102379.50;;;1.27;70.92
22241;BME280;11289;52.524;13.694;2023-03-01T08:06:27;102381.41;;;1.45;69.08
22241;BME280;11289;52.524;13.694;2023-03-01T08:08:52;102374.50;;;1.61;69.19
22241;BME280;11289;52.524;13.694;2023-03-01T08:11:20;102380.06;;;1.91;68.48
22241;BME280;11289;52.524;13.694;2023-03-01T08:13:47;102368.09;;;2.04;65.52
22241;BME280;11289;52.524;13.694;2023-03-01T08:16:14;102383.19;;;2.14;66.28
22241;BME280;11289;52.524;13.694;2023-03-01T08:18:40;102361.63;;;2.17;65.81
22241;BME280;11289;52.524;13.694;2023-03-01T08:21:14;102366.50;;;2.46;65.12
22241;BME280;11289;52.524;13.694;2023-03-01T08:23:41;102369.66;;;2.73;65.58
22241;BME280;11289;52.524;13.694;2023-03-01T08:26:18;102369.09;;;3.06;65.65
22241;BME280;11289;52.524;13.694;2023-03-01T08:28:45;102364.38;;;3.37;66.34
22241;BME280;11289;52.524;13.694;2023-03-01T08:33:39;102357.59;;;3.80;63.94
22241;BME280;11289;52.524;13.694;2023-03-01T08:36:05;102347.63;;;4.03;64.63
22241;BME280;11289;52.524;13.694;2023-03-01T08:38:33;102355.72;;;4.39;64.00
22241;BME280;11289;52.524;13.694;2023-03-01T08:41:03;102363.34;;;4.65;62.51
22241;BME280;11289;52.524;13.694;2023-03-01T08:43:29;102362.69;;;4.92;63.03
22241;BME280;11289;52.524;13.694;2023-03-01T08:45:54;102351.44;;;5.11;60.97
22241;BME280;11289;52.524;13.694;2023-03-01T08:48:20;102353.34;;;5.27;58.17
22241;BME280;11289;52.524;13.694;2023-03-01T08:50:46;102354.84;;;5.35;56.96
22241;BME280;11289;52.524;13.694;2023-03-01T08:53:11;102332.44;;;5.31;57.77
22241;BME280;11289;52.524;13.694;2023-03-01T08:55:36;102346.94;;;5.61;55.90
22241;BME280;11289;52.524;13.694;2023-03-01T08:58:02;102339.88;;;5.92;58.20
22241;BME280;11289;52.524;13.694;2023-03-01T09:00:27;102338.59;;;6.22;57.56
22241;BME280;11289;52.524;13.694;2023-03-01T09:02:53;102332.50;;;6.47;55.91
22241;BME280;11289;52.524;13.694;2023-03-01T09:05:18;102333.25;;;6.70;54.21
22241;BME280;11289;52.524;13.694;2023-03-01T09:07:43;102332.34;;;6.91;54.77
22241;BME280;11289;52.524;13.694;2023-03-01T09:10:09;102331.63;;;7.06;54.53
22241;BME280;11289;52.524;13.694;2023-03-01T09:12:34;102338.91;;;7.23;49.83
22241;BME280;11289;52.524;13.694;2023-03-01T09:15:00;102332.00;;;7.25;49.08
22241;BME280;11289;52.524;13.694;2023-03-01T09:17:25;102333.50;;;7.43;52.40
22241;BME280;11289;52.524;13.694;2023-03-01T09:19:50;102328.38;;;7.62;53.33
22241;BME280;11289;52.524;13.694;2023-03-01T09:22:16;102336.97;;;7.76;48.85
22241;BME280;11289;52.524;13.694;2023-03-01T09:24:41;102321.81;;;7.94;49.98
22241;BME280;11289;52.524;13.694;2023-03-01T09:27:06;102337.41;;;8.21;50.51
22241;BME280;11289;52.524;13.694;2023-03-01T09:29:37;102321.59;;;8.01;44.52
22241;BME280;11289;52.524;13.694;2023-03-01T09:32:02;102321.81;;;7.89;45.65
22241;BME280;11289;52.524;13.694;2023-03-01T09:34:28;102323.19;;;7.81;44.05
22241;BME280;11289;52.524;13.694;2023-03-01T09:36:53;102332.94;;;8.05;48.66
22241;BME280;11289;52.524;13.694;2023-03-01T09:39:19;102339.41;;;8.41;48.79
22241;BME280;11289;52.524;13.694;2023-03-01T09:42:01;102334.47;;;8.64;46.06
22241;BME280;11289;52.524;13.694;2023-03-01T09:44:40;102330.31;;;8.56;44.54
22241;BME280;11289;52.524;13.694;2023-03-01T09:47:23;102330.03;;;8.47;43.03
22241;BME280;11289;52.524;13.694;2023-03-01T09:50:04;102327.72;;;8.13;43.02
22241;BME280;11289;52.524;13.694;2023-03-01T09:52:34;102329.41;;;8.35;44.17
22241;BME280;11289;52.524;13.694;2023-03-01T09:55:04;102333.38;;;8.80;45.81
22241;BME280;11289;52.524;13.694;2023-03-01T09:57:41;102323.34;;;9.26;45.38
22241;BME280;11289;52.524;13.694;2023-03-01T10:00:33;102330.22;;;9.49;44.22
22241;BME280;11289;52.524;13.694;2023-03-01T10:03:12;102332.25;;;8.71;40.34
22241;BME280;11289;52.524;13.694;2023-03-01T10:05:49;102323.31;;;8.33;41.73
22241;BME280;11289;52.524;13.694;2023-03-01T10:11:05;102328.06;;;8.48;41.64
22241;BME280;11289;52.524;13.694;2023-03-01T10:14:01;102341.56;;;8.13;40.75
22241;BME280;11289;52.524;13.694;2023-03-01T10:16:40;102336.97;;;7.71;41.64
22241;BME280;11289;52.524;13.694;2023-03-01T10:19:13;102334.22;;;7.71;40.93
22241;BME280;11289;52.524;13.694;2023-03-01T10:21:44;102333.50;;;8.07;41.87
22241;BME280;11289;52.524;13.694;2023-03-01T10:24:13;102327.22;;;8.37;41.06
22241;BME280;11289;52.524;13.694;2023-03-01T10:26:56;102331.72;;;8.95;41.80
22241;BME280;11289;52.524;13.694;2023-03-01T10:29:34;102329.16;;;9.24;38.43
22241;BME280;11289;52.524;13.694;2023-03-01T10:32:03;102330.47;;;9.57;39.73
22241;BME280;11289;52.524;13.694;2023-03-01T10:34:33;102326.34;;;9.45;39.95
22241;BME280;11289;52.524;13.694;2023-03-01T10:37:14;102327.13;;;9.61;39.20
22241;BME280;11289;52.524;13.694;2023-03-01T10:40:07;102327.63;;;9.73;36.57
22241;BME280;11289;52.524;13.694;2023-03-01T10:43:03;102320.44;;;9.72;35.97
22241;BME280;11289;52.524;13.694;2023-03-01T10:50:42;102306.22;;;10.39;34.62
22241;BME280;11289;52.524;13.694;2023-03-01T10:58:32;102291.44;;;9.99;35.08
22241;BME280;11289;52.524;13.694;2023-03-01T11:01:00;102284.50;;;10.01;34.88
22241;BME280;11289;52.524;13.694;2023-03-01T11:03:32;102281.72;;;10.46;35.53
22241;BME280;11289;52.524;13.694;2023-03-01T11:08:55;102279.22;;;11.32;34.78
22241;BME280;11289;52.524;13.694;2023-03-01T11:11:33;102277.06;;;11.73;34.46
22241;BME280;11289;52.524;13.694;2023-03-01T11:16:35;102259.47;;;12.01;32.54
22241;BME280;11289;52.524;13.694;2023-03-01T11:21:39;102270.78;;;11.86;29.56
22241;BME280;11289;52.524;13.694;2023-03-01T11:24:11;102263.56;;;11.18;25.84
22241;BME280;11289;52.524;13.694;2023-03-01T11:26:40;102264.38;;;10.94;28.58
22241;BME280;11289;52.524;13.694;2023-03-01T11:29:25;102261.66;;;11.13;29.88
22241;BME280;11289;52.524;13.694;2023-03-01T11:31:51;102261.38;;;11.14;28.28
22241;BME280;11289;52.524;13.694;2023-03-01T11:37:19;102256.25;;;10.97;28.53
22241;BME280;11289;52.524;13.694;2023-03-01T11:39:56;102257.41;;;10.96;30.73
22241;BME280;11289;52.524;13.694;2023-03-01T11:42:49;102253.69;;;11.55;30.74
22241;BME280;11289;52.524;13.694;2023-03-01T11:45:15;102250.59;;;11.56;29.78
22241;BME280;11289;52.524;13.694;2023-03-01T11:47:48;102257.56;;;11.29;30.47
22241;BME280;11289;52.524;13.694;2023-03-01T11:53:20;102254.03;;;11.48;30.37
22241;BME280;11289;52.524;13.694;2023-03-01T12:01:35;102251.06;;;12.40;28.76
22241;BME280;11289;52.524;13.694;2023-03-01T12:04:38;102242.69;;;12.59;25.75
22241;BME280;11289;52.524;13.694;2023-03-01T12:07:14;102243.81;;;12.58;26.11
22241;BME280;11289;52.524;13.694;2023-03-01T12:10:20;102246.00;;;12.09;26.53
22241;BME280;11289;52.524;13.694;2023-03-01T12:22:09;102227.47;;;12.84;27.05
22241;BME280;11289;52.524;13.694;2023-03-01T12:30:35;102215.81;;;12.49;25.87
22241;BME280;11289;52.524;13.694;2023-03-01T12:33:39;102217.88;;;12.43;28.59
22241;BME280;11289;52.524;13.694;2023-03-01T12:44:56;102198.84;;;12.64;29.44
22241;BME280;11289;52.524;13.694;2023-03-01T12:50:12;102187.56;;;12.42;29.71
22241;BME280;11289;52.524;13.694;2023-03-01T12:52:44;102195.19;;;12.50;29.80
22241;BME280;11289;52.524;13.694;2023-03-01T12:55:39;102194.56;;;12.53;29.96
22241;BME280;11289;52.524;13.694;2023-03-01T13:01:27;102174.94;;;12.30;29.83
22241;BME280;11289;52.524;13.694;2023-03-01T13:07:00;102169.84;;;12.18;29.64
22241;BME280;11289;52.524;13.694;2023-03-01T13:17:56;102163.22;;;11.57;28.98
22241;BME280;11289;52.524;13.694;2023-03-01T13:20:34;102161.84;;;10.92;28.98
22241;BME280;11289;52.524;13.694;2023-03-01T13:26:07;102158.81;;;10.65;30.76
22241;BME280;11289;52.524;13.694;2023-03-01T13:33:49;102144.97;;;10.59;31.25
22241;BME280;11289;52.524;13.694;2023-03-01T13:38:59;102143.59;;;10.27;32.65
22241;BME280;11289;52.524;13.694;2023-03-01T13:44:25;102138.47;;;9.71;33.35
22241;BME280;11289;52.524;13.694;2023-03-01T13:47:19;102136.28;;;9.68;34.44
22241;BME280;11289;52.524;13.694;2023-03-01T13:49:50;102126.88;;;9.64;33.73
22241;BME280;11289;52.524;13.694;2023-03-01T13:54:58;102110.97;;;9.35;34.25
22241;BME280;11289;52.524;13.694;2023-03-01T13:57:28;102115.47;;;9.26;34.41
22241;BME280;11289;52.524;13.694;2023-03-01T13:59:54;102116.34;;;9.21;34.75
22241;BME280;11289;52.524;13.694;2023-03-01T14:02:20;102117.75;;;9.13;34.41
22241;BME280;11289;52.524;13.694;2023-03-01T14:04:56;102117.78;;;9.08;34.92
22241;BME280;11289;52.524;13.694;2023-03-01T14:07:23;102112.56;;;8.91;34.04
22241;BME280;11289;52.524;13.694;2023-03-01T14:10:05;102112.34;;;8.82;34.17
22241;BME280;11289;52.524;13.694;2023-03-01T14:12:54;102101.00;;;8.79;33.40
22241;BME280;11289;52.524;13.694;2023-03-01T14:18:42;102103.56;;;8.54;35.42
22241;BME280;11289;52.524;13.694;2023-03-01T14:21:14;102091.66;;;8.44;35.65
22241;BME280;11289;52.524;13.694;2023-03-01T14:23:41;102103.59;;;8.44;35.09
22241;BME280;11289;52.524;13.694;2023-03-01T14:26:08;102091.94;;;8.37;34.36
22241;BME280;11289;52.524;13.694;2023-03-01T14:28:36;102085.06;;;8.24;33.68
22241;BME280;11289;52.524;13.694;2023-03-01T14:31:45;102092.25;;;8.20;35.30
22241;BME280;11289;52.524;13.694;2023-03-01T14:34:20;102088.09;;;8.17;34.61
22241;BME280;11289;52.524;13.694;2023-03-01T14:36:45;102087.28;;;8.12;35.17
22241;BME280;11289;52.524;13.694;2023-03-01T14:39:23;102063.78;;;8.09;34.71
22241;BME280;11289;52.524;13.694;2023-03-01T14:42:44;102080.34;;;8.30;36.92
22241;BME280;11289;52.524;13.694;2023-03-01T16:04:21;102043.16;;;8.72;41.76
22241;BME280;11289;52.524;13.694;2023-03-01T16:17:49;102040.25;;;8.22;44.38
22241;BME280;11289;52.524;13.694;2023-03-01T17:35:38;102048.63;;;5.16;53.88
22241;BME280;11289;52.524;13.694;2023-03-01T17:38:51;102050.16;;;5.06;54.15
22241;BME280;11289;52.524;13.694;2023-03-01T17:42:13;102057.47;;;4.96;53.95
